Gypsum, KS (67448)

7:41 AM CDT on October 25, 2014 (GMT -0500)
Water Well Road | Change Station
CLOSE
Current Station
Personal Weather Station
Location: Salina, KS
Elevation: 1243 ft
Nearby Weather Stations

Elev 1243 ft 38.77 °N, 97.59 °W | Updated 6 minutes ago

Fog
Fog
54.2 °F
Feels Like 54.2 °F
N
0.0
Wind Variable Wind from SSW
Gusts 0.0 mph

Today
High -- | Low -- °F
--% Chance of Precip.
Yesterday
High -- | Low -- °F
Precip. -- in
7:49 AM 6:37 PM
Waxing Crescent, 3% visible
Pressure 30.05 in
Visibility 0.2 miles
Clouds
Dew Point 53 °F
Humidity 97%
Rainfall 0.00 in
Snow Depth Not available.
UV 0.0 out of 12
Pollen 3.10 out of 12
Air Quality Not available.
Flu Activity No Activity
SPECI KSLN 251231Z 17003KT 1/4SM FG VV002 12/12 A3005 RMK AO2 T01220117

More Conditions Fewer Conditions

Pressure 30.05 in
Visibility 0.2 miles
Clouds
Dew Point 53 °F
Humidity 97%
Rainfall 0.00 in
Snow Depth Not available.
UV 0.0 out of 12
Pollen 3.10 out of 12
Air Quality Not available.
Flu Activity No Activity
SPECI KSLN 251231Z 17003KT 1/4SM FG VV002 12/12 A3005 RMK AO2 T01220117

More Conditions Fewer Conditions

10-Day Weather Forecast

Almanac

Astronomy

Oct. 25, 2014 Rise Set
Actual Time 7:49 AM CDT 6:37 PM CDT
Civil Twilight 7:22 AM CDT 7:04 PM CDT
Nautical Twilight 6:50 AM CDT 7:36 PM CDT
Astronomical Twilight 6:20 AM CDT 8:06 PM CDT
Moon 9:28 AM CDT 8:02 PM CDT
Length of Visible Light 11h 42m
Length of Day
10h 48m
Tomorrow will be 2m 18s shorter.
Waxing Crescent, 3% of the Moon is Illuminated
Today
Waxing Crescent
Oct 30
First Quarter
Nov 6
Full
Nov 14
Last Quarter
Nov 22
New

Today's Extremes

State Highs State Lows

Community

WunderPhotos

Upload Photos

1,764,821 photos uploaded!

Nearby

Snow Depth

Station Depth Elevation
No new snow has been reported.

Earthquake Activity

City Distance Mag. Time & Date
Medford, Oklahoma 133 miles 2.6 12:44 PM CDT
2014-10-24
Anthony, Kansas 118 miles 2.7 4:24 AM CDT
2014-10-24
Anthony, Kansas 120 miles 2.7 9:47 PM CDT
2014-10-22
Anthony, Kansas 119 miles 3.3 6:48 PM CDT
2014-10-22
Minimum magnitude displayed is 2.5.

Coastal Water Temperatures

Place Temperature
No Stations Reporting

Nearby Weather Stations